Time;durP1;ratioP1;P1;durP2;ratioP2;P2;SDS_P1;SDS_P2;PMS_P1;PMS_P2;Temp;Humidity;BMP_temperature;BMP_pressure;BME280_temperature;BME280_humidity;BME280_pressure;Samples;Min_cycle;Max_cycle;Signal;HPM_P1;HPM_P2
2022/10/06 00:01:53;;;;;;;3.47;2.85;;;;;;;15.71;100.00;99291.97;4122221;28;20217;-52
2022/10/06 00:03:54;;;;;;;3.50;1.63;;;;;;;15.65;100.00;99293.88;4103281;28;20605;-52
2022/10/06 00:06:00;;;;;;;2.95;2.50;;;;;;;15.69;100.00;99297.75;4120057;28;20249;-51
2022/10/06 00:08:03;;;;;;;6.28;2.63;;;;;;;15.70;100.00;99293.91;4107638;28;20207;-52
2022/10/06 00:10:05;;;;;;;3.55;2.83;;;;;;;15.72;100.00;99300.00;4119677;28;20207;-50
2022/10/06 00:12:08;;;;;;;2.50;1.95;;;;;;;15.77;100.00;99305.53;4089756;28;20291;-50
2022/10/06 00:14:10;;;;;;;5.68;2.05;;;;;;;15.80;100.00;99299.50;4120827;28;20238;-51
2022/10/06 00:16:16;;;;;;;6.68;2.65;;;;;;;15.82;100.00;99296.50;4121010;28;20241;-50
2022/10/06 00:18:18;;;;;;;5.50;2.40;;;;;;;15.82;100.00;99302.03;4102029;28;20222;-52
2022/10/06 00:20:19;;;;;;;5.75;2.53;;;;;;;15.85;100.00;99307.00;4116792;28;20319;-53
2022/10/06 00:22:21;;;;;;;4.13;2.88;;;;;;;15.80;100.00;99321.59;4120958;28;20297;-53
2022/10/06 00:24:23;;;;;;;3.95;2.42;;;;;;;15.76;100.00;99325.97;4123400;28;20532;-50
2022/10/06 00:26:25;;;;;;;5.82;2.88;;;;;;;15.74;100.00;99328.16;4123382;28;20248;-51
2022/10/06 00:28:27;;;;;;;5.45;2.40;;;;;;;15.75;100.00;99340.06;4121386;28;20206;-51
2022/10/06 00:30:32;;;;;;;3.72;2.20;;;;;;;15.86;100.00;99339.03;4121214;28;20258;-52
2022/10/06 00:32:34;;;;;;;2.72;2.00;;;;;;;15.84;100.00;99339.28;4121054;28;20289;-51
2022/10/06 00:34:36;;;;;;;3.72;2.20;;;;;;;15.77;100.00;99346.94;4119716;28;20276;-53
2022/10/06 00:36:38;;;;;;;4.03;2.20;;;;;;;15.75;100.00;99340.06;4104208;28;20290;-51
2022/10/06 00:38:39;;;;;;;3.00;2.70;;;;;;;15.77;100.00;99344.19;4105161;28;20286;-51
2022/10/06 00:40:45;;;;;;;3.38;2.15;;;;;;;15.76;100.00;99345.28;4119307;28;20216;-51
2022/10/06 00:42:47;;;;;;;7.55;2.92;;;;;;;15.77;100.00;99352.47;4117687;28;20261;-53
2022/10/06 00:44:49;;;;;;;2.60;2.17;;;;;;;15.76;100.00;99355.50;4119414;28;20301;-52
2022/10/06 00:46:52;;;;;;;3.72;2.17;;;;;;;15.77;100.00;99360.75;4102163;28;20206;-51
2022/10/06 00:49:16;;;;;;;5.55;2.75;;;;;;;15.74;100.00;99354.91;4121465;28;20201;-51
2022/10/06 00:51:19;;;;;;;8.88;2.75;;;;;;;15.77;100.00;99359.94;4119384;28;20236;-53
2022/10/06 00:53:22;;;;;;;3.88;2.42;;;;;;;15.78;100.00;99367.09;4119334;28;20304;-50
2022/10/06 00:55:23;;;;;;;4.97;2.13;;;;;;;15.80;100.00;99364.91;4119427;28;20708;-50
2022/10/06 00:57:25;;;;;;;7.97;2.78;;;;;;;15.76;100.00;99375.66;4106251;28;20665;-51
2022/10/06 00:59:27;;;;;;;7.22;3.67;;;;;;;15.85;100.00;99379.63;4098526;28;20534;-52
2022/10/06 01:01:30;;;;;;;7.53;2.47;;;;;;;15.88;100.00;99376.31;4115001;28;20759;-51
2022/10/06 01:03:34;;;;;;;4.43;2.58;;;;;;;15.81;100.00;99383.97;4099415;28;20234;-51
2022/10/06 01:05:45;;;;;;;2.38;2.17;;;;;;;15.84;100.00;99383.44;4119626;28;20293;-51
2022/10/06 01:07:47;;;;;;;3.17;2.47;;;;;;;15.84;100.00;99383.44;4115710;28;20245;-51
2022/10/06 01:09:49;;;;;;;3.70;2.05;;;;;;;15.83;100.00;99380.97;4118176;28;20298;-53
2022/10/06 01:11:53;;;;;;;5.93;2.70;;;;;;;15.88;100.00;99390.13;4118023;28;20284;-52
2022/10/06 01:13:54;;;;;;;12.85;2.95;;;;;;;15.97;100.00;99383.00;4119452;28;20236;-52
2022/10/06 01:16:05;;;;;;;3.53;2.42;;;;;;;15.95;100.00;99393.47;4120336;28;20204;-51
2022/10/06 01:18:12;;;;;;;4.18;2.13;;;;;;;15.94;100.00;99394.59;4107039;28;20210;-51
2022/10/06 01:20:16;;;;;;;2.75;1.98;;;;;;;15.93;100.00;99392.06;4119212;28;20304;-52
2022/10/06 01:22:39;;;;;;;2.70;2.10;;;;;;;15.94;100.00;99393.75;4120604;28;20213;-51
2022/10/06 01:24:42;;;;;;;2.92;2.45;;;;;;;15.97;100.00;99396.81;4118976;28;20226;-53
2022/10/06 01:26:47;;;;;;;4.03;2.88;;;;;;;16.02;100.00;99402.38;4118036;28;20768;-52
2022/10/06 01:28:49;;;;;;;2.95;2.53;;;;;;;15.99;100.00;99407.59;4118485;28;20216;-50
2022/10/06 01:30:53;;;;;;;4.15;2.05;;;;;;;16.03;100.00;99409.56;4119946;28;20204;-52
2022/10/06 01:32:55;;;;;;;5.43;2.63;;;;;;;16.03;100.00;99408.75;4117869;28;20218;-52
2022/10/06 01:34:56;;;;;;;4.22;2.75;;;;;;;15.98;100.00;99415.06;4105403;28;20215;-51
2022/10/06 01:36:58;;;;;;;8.48;2.60;;;;;;;16.02;100.00;99424.47;4104842;28;20199;-51
2022/10/06 01:39:00;;;;;;;2.40;2.20;;;;;;;16.11;100.00;99416.53;4120573;28;20206;-52
2022/10/06 01:41:02;;;;;;;3.47;2.90;;;;;;;16.06;100.00;99422.00;4119085;28;20702;-51
2022/10/06 01:43:03;;;;;;;3.20;2.63;;;;;;;16.09;100.00;99424.25;4115479;28;20225;-52
2022/10/06 01:45:06;;;;;;;4.28;2.70;;;;;;;16.04;100.00;99425.03;4119973;28;20555;-52
2022/10/06 01:47:08;;;;;;;3.45;2.55;;;;;;;16.09;100.00;99425.06;4117892;28;20317;-51
2022/10/06 01:49:09;;;;;;;4.47;3.33;;;;;;;16.05;100.00;99439.69;4118600;28;20242;-51
2022/10/06 01:51:13;;;;;;;4.95;2.70;;;;;;;16.04;100.00;99432.50;4118728;28;20304;-51
2022/10/06 01:53:15;;;;;;;3.17;2.88;;;;;;;16.04;100.00;99433.31;4119485;28;20312;-51
2022/10/06 01:55:18;;;;;;;4.28;2.97;;;;;;;15.97;100.00;99438.22;4104597;28;20210;-52
2022/10/06 01:57:20;;;;;;;4.07;2.97;;;;;;;16.01;100.00;99438.53;4104095;28;20395;-51
2022/10/06 01:59:23;;;;;;;10.65;2.75;;;;;;;15.93;100.00;99441.78;4118317;28;20213;-52
2022/10/06 02:01:25;;;;;;;4.50;2.95;;;;;;;15.99;100.00;99436.06;4118612;28;20210;-51
2022/10/06 02:03:26;;;;;;;5.95;2.95;;;;;;;15.92;100.00;99434.59;4105588;28;20234;-51
2022/10/06 02:05:28;;;;;;;5.30;2.83;;;;;;;15.94;100.00;99427.72;4120449;28;20893;-51
2022/10/06 02:07:30;;;;;;;3.83;2.83;;;;;;;15.90;100.00;99443.13;4121083;28;20593;-50
2022/10/06 02:09:32;;;;;;;17.00;2.75;;;;;;;15.89;100.00;99440.66;4104385;28;20247;-50
2022/10/06 02:11:34;;;;;;;3.40;2.95;;;;;;;15.85;100.00;99467.94;4101720;28;20306;-52
2022/10/06 02:13:36;;;;;;;3.40;2.80;;;;;;;15.87;100.00;99460.22;4104671;28;21009;-52
2022/10/06 02:15:38;;;;;;;4.28;3.63;;;;;;;15.86;100.00;99463.25;4116426;28;20651;-52
2022/10/06 02:17:40;;;;;;;4.20;2.80;;;;;;;15.84;100.00;99465.44;4092147;28;20269;-51
2022/10/06 02:19:42;;;;;;;7.35;2.92;;;;;;;15.84;100.00;99469.00;4121571;28;20282;-51
2022/10/06 02:21:43;;;;;;;4.50;3.03;;;;;;;15.76;100.00;99477.75;4120385;28;20560;-51
2022/10/06 02:23:45;;;;;;;7.72;3.42;;;;;;;15.81;100.00;99472.31;4102586;28;20230;-52
2022/10/06 02:25:47;;;;;;;2.60;2.30;;;;;;;15.83;100.00;99486.66;4120180;28;20254;-52
2022/10/06 02:27:48;;;;;;;2.90;2.67;;;;;;;15.77;100.00;99492.41;4106705;28;20215;-53
2022/10/06 02:29:50;;;;;;;3.33;1.75;;;;;;;15.75;100.00;99500.94;4121074;28;20696;-52
2022/10/06 02:31:53;;;;;;;3.20;2.00;;;;;;;15.74;100.00;99503.94;4122823;28;20221;-50
2022/10/06 02:33:55;;;;;;;7.35;1.90;;;;;;;15.73;100.00;99516.94;4121170;28;20254;-50
2022/10/06 02:35:57;;;;;;;2.80;1.88;;;;;;;15.70;100.00;99502.81;4107349;28;20203;-51
2022/10/06 02:37:58;;;;;;;2.25;1.55;;;;;;;15.70;100.00;99503.63;4122693;28;20202;-50
2022/10/06 02:40:00;;;;;;;4.95;1.70;;;;;;;15.66;100.00;99519.06;4121559;28;20297;-50
2022/10/06 02:42:03;;;;;;;4.25;1.20;;;;;;;15.67;100.00;99520.72;4119081;28;20285;-50
2022/10/06 02:44:05;;;;;;;5.30;1.52;;;;;;;15.74;100.00;99526.88;4122980;28;20308;-50
2022/10/06 02:46:10;;;;;;;2.65;1.00;;;;;;;15.67;100.00;99531.78;4121474;28;20733;-50
2022/10/06 02:48:12;;;;;;;2.20;1.20;;;;;;;15.66;99.93;99538.38;4106616;28;20211;-50
2022/10/06 02:50:14;;;;;;;3.88;1.88;;;;;;;15.45;97.31;99533.72;4123038;28;20238;-50
2022/10/06 02:52:16;;;;;;;2.03;0.70;;;;;;;15.50;97.10;99536.50;4122517;28;20209;-54
2022/10/06 02:54:17;;;;;;;3.63;1.08;;;;;;;15.41;93.51;99532.53;4120556;28;20229;-50
2022/10/06 02:56:22;;;;;;;2.45;0.90;;;;;;;15.44;94.69;99529.25;4106869;28;20206;-50
2022/10/06 02:58:23;;;;;;;5.93;1.25;;;;;;;15.44;91.12;99543.06;4104953;28;20204;-52
2022/10/06 03:00:26;;;;;;;1.10;0.60;;;;;;;15.37;90.83;99547.94;4123928;28;20214;-53
2022/10/06 03:02:30;;;;;;;1.58;0.70;;;;;;;15.37;92.16;99553.44;4122217;28;20306;-52
2022/10/06 03:04:32;;;;;;;1.65;0.90;;;;;;;15.39;91.98;99554.03;4119977;28;20318;-54
2022/10/06 03:06:34;;;;;;;2.08;0.70;;;;;;;15.39;92.44;99554.03;4118425;28;20304;-53
2022/10/06 03:08:36;;;;;;;4.55;0.90;;;;;;;15.39;91.68;99554.03;4104952;28;20294;-51
2022/10/06 03:10:38;;;;;;;2.42;0.60;;;;;;;15.40;91.57;99563.13;4120279;28;20581;-51
2022/10/06 03:12:39;;;;;;;2.55;1.52;;;;;;;15.45;91.52;99565.97;4120476;28;20680;-52
2022/10/06 03:14:41;;;;;;;1.80;0.65;;;;;;;15.26;90.13;99568.19;4104523;28;20684;-52
2022/10/06 03:16:43;;;;;;;1.13;0.50;;;;;;;15.32;91.69;99572.72;4103796;28;20299;-51
2022/10/06 03:18:49;;;;;;;2.22;0.77;;;;;;;15.21;88.55;99570.84;4120352;28;20735;-50
2022/10/06 03:20:52;;;;;;;3.58;0.95;;;;;;;15.26;90.46;99576.44;4119688;28;20202;-52
2022/10/06 03:22:54;;;;;;;2.75;0.75;;;;;;;15.26;90.59;99572.84;4121424;28;20269;-52
2022/10/06 03:24:56;;;;;;;1.35;0.82;;;;;;;15.27;90.39;99580.88;4104707;28;20269;-51
2022/10/06 03:26:58;;;;;;;3.50;0.88;;;;;;;15.25;90.79;99577.53;4102499;28;20231;-51
2022/10/06 03:29:00;;;;;;;2.08;0.68;;;;;;;15.31;91.38;99581.19;4119499;28;20296;-51
2022/10/06 03:31:03;;;;;;;1.10;0.88;;;;;;;15.24;91.08;99592.41;4118578;28;20749;-50
2022/10/06 03:33:05;;;;;;;1.20;0.80;;;;;;;15.22;91.54;99604.78;4120405;28;20318;-52
2022/10/06 03:35:07;;;;;;;2.40;0.90;;;;;;;15.30;91.30;99605.16;4118870;28;20208;-51
2022/10/06 03:37:09;;;;;;;1.15;0.70;;;;;;;15.29;90.78;99586.97;4102482;28;20211;-51
2022/10/06 03:39:10;;;;;;;2.60;0.70;;;;;;;15.14;90.73;99596.94;4120587;28;20238;-51
2022/10/06 03:41:17;;;;;;;1.13;0.65;;;;;;;15.14;91.68;99603.28;4119832;28;20289;-52
2022/10/06 03:43:19;;;;;;;2.05;0.60;;;;;;;15.23;91.68;99618.31;4104676;28;20299;-50
2022/10/06 03:45:20;;;;;;;0.82;0.82;;;;;;;15.13;90.43;99612.66;4120327;28;20300;-52
2022/10/06 03:47:22;;;;;;;3.70;1.00;;;;;;;15.07;91.22;99624.69;4105458;28;20325;-53
2022/10/06 03:49:24;;;;;;;1.98;0.80;;;;;;;15.03;91.94;99630.97;4104516;28;20238;-50
2022/10/06 03:51:26;;;;;;;1.65;0.40;;;;;;;15.16;92.30;99645.22;4118423;28;20206;-54
2022/10/06 03:53:29;;;;;;;2.55;0.60;;;;;;;15.00;90.90;99635.06;4118788;28;20972;-50
2022/10/06 03:55:31;;;;;;;2.28;0.70;;;;;;;15.01;90.35;99625.69;4105139;28;20549;-51
2022/10/06 03:57:32;;;;;;;1.70;0.80;;;;;;;14.94;90.54;99641.56;4120647;28;20228;-50
2022/10/06 03:59:34;;;;;;;1.95;0.80;;;;;;;14.98;91.73;99631.72;4118861;28;20701;-50
2022/10/06 04:01:38;;;;;;;1.85;0.73;;;;;;;14.98;90.70;99640.00;4106928;28;20219;-54
2022/10/06 04:03:40;;;;;;;4.43;1.30;;;;;;;15.01;90.96;99647.75;4123248;28;20276;-52
2022/10/06 04:05:51;;;;;;;4.78;1.05;;;;;;;14.98;91.55;99637.22;4119953;28;20210;-53
2022/10/06 04:07:53;;;;;;;1.98;0.75;;;;;;;14.98;92.49;99648.25;4119891;28;20266;-54
2022/10/06 04:09:55;;;;;;;10.38;1.15;;;;;;;14.99;92.55;99647.16;4119264;28;20282;-53
2022/10/06 04:11:57;;;;;;;2.25;0.70;;;;;;;14.92;91.95;99648.41;4104026;28;20245;-52
2022/10/06 04:14:04;;;;;;;2.15;0.70;;;;;;;14.97;92.49;99649.31;4120053;28;20272;-52
2022/10/06 04:16:17;;;;;;;3.70;0.95;;;;;;;14.98;91.06;99667.56;4119431;28;20643;-50
2022/10/06 04:18:19;;;;;;;3.50;0.77;;;;;;;15.04;91.05;99662.97;4103906;28;20221;-50
2022/10/06 04:20:21;;;;;;;1.40;0.70;;;;;;;14.97;91.24;99665.88;4105943;28;20199;-51
2022/10/06 04:22:22;;;;;;;3.38;0.80;;;;;;;14.89;89.82;99676.50;4119313;28;20306;-51
2022/10/06 04:24:24;;;;;;;2.00;0.50;;;;;;;14.91;91.07;99675.13;4117362;28;20327;-51
2022/10/06 04:26:29;;;;;;;0.98;0.93;;;;;;;14.82;90.69;99689.59;4101721;28;20256;-51
2022/10/06 04:28:31;;;;;;;2.92;1.00;;;;;;;14.85;91.48;99687.19;4120694;28;20285;-51
2022/10/06 04:30:34;;;;;;;1.10;0.60;;;;;;;14.80;90.60;99686.22;4114135;28;21458;-52
2022/10/06 04:32:36;;;;;;;1.38;0.75;;;;;;;14.86;91.06;99688.00;4119728;28;20355;-51
2022/10/06 04:34:37;;;;;;;5.30;1.23;;;;;;;14.84;90.27;99690.19;4103408;28;20446;-50
2022/10/06 04:36:40;;;;;;;0.88;0.70;;;;;;;14.80;90.63;99684.31;4106246;28;20230;-51
2022/10/06 04:38:42;;;;;;;1.80;1.10;;;;;;;14.74;90.76;99696.34;4105254;28;20235;-50
2022/10/06 04:40:44;;;;;;;2.35;1.40;;;;;;;14.76;91.24;99693.34;4103385;28;20681;-50
2022/10/06 04:42:49;;;;;;;8.27;1.05;;;;;;;14.69;91.39;99699.00;4103282;28;20222;-50
2022/10/06 04:44:50;;;;;;;3.15;1.05;;;;;;;14.69;91.59;99704.50;4103687;28;20217;-51
2022/10/06 04:46:52;;;;;;;7.55;1.02;;;;;;;14.54;91.15;99701.47;4096780;28;20268;-50
2022/10/06 04:48:54;;;;;;;1.45;0.73;;;;;;;14.61;92.13;99696.66;4102321;28;20627;-50
2022/10/06 04:51:01;;;;;;;1.73;0.73;;;;;;;14.55;91.53;99702.28;4121296;28;20260;-53
2022/10/06 04:53:03;;;;;;;1.85;0.80;;;;;;;14.54;92.12;99700.63;4113430;28;20226;-53
2022/10/06 04:55:05;;;;;;;4.05;1.00;;;;;;;14.48;91.91;99696.94;4120874;28;20229;-52
2022/10/06 04:57:07;;;;;;;1.77;0.80;;;;;;;14.48;92.24;99699.69;4111232;28;20225;-51
2022/10/06 04:59:08;;;;;;;2.92;0.90;;;;;;;14.50;92.57;99694.78;4117755;28;20212;-50
2022/10/06 05:01:14;;;;;;;1.85;1.00;;;;;;;14.51;92.97;99704.69;4096500;28;20242;-53
2022/10/06 05:03:16;;;;;;;6.85;1.10;;;;;;;14.45;92.95;99702.13;4112860;28;20233;-53
2022/10/06 05:05:18;;;;;;;2.47;0.82;;;;;;;14.62;93.03;99711.28;4119180;28;20693;-54
2022/10/06 05:07:19;;;;;;;2.67;0.95;;;;;;;14.60;93.47;99717.03;4103693;28;20300;-52
2022/10/06 05:09:21;;;;;;;2.25;1.00;;;;;;;14.54;93.44;99718.00;4116767;28;20266;-52
2022/10/06 05:11:23;;;;;;;1.95;1.13;;;;;;;14.47;93.82;99717.31;4118624;28;20209;-50
2022/10/06 05:13:26;;;;;;;2.88;1.00;;;;;;;14.52;93.82;99711.91;4116848;28;20690;-54
2022/10/06 05:15:28;;;;;;;1.88;1.02;;;;;;;14.54;93.93;99722.66;4114720;28;20210;-53
2022/10/06 05:17:33;;;;;;;2.85;0.93;;;;;;;14.46;93.75;99732.16;4118714;28;20678;-51
2022/10/06 05:19:35;;;;;;;2.75;0.85;;;;;;;14.46;94.25;99734.94;4089645;28;20276;-53
2022/10/06 05:21:36;;;;;;;4.20;1.15;;;;;;;14.46;94.47;99732.16;4117033;28;20704;-52
2022/10/06 05:23:40;;;;;;;3.55;1.45;;;;;;;14.49;94.56;99731.66;4118213;28;20320;-52
2022/10/06 05:25:50;;;;;;;2.92;1.15;;;;;;;14.46;95.01;99732.16;4086526;28;20315;-53
2022/10/06 05:27:52;;;;;;;3.28;1.70;;;;;;;14.53;94.39;99732.00;4117180;28;20206;-53
2022/10/06 05:29:53;;;;;;;5.40;0.90;;;;;;;14.29;95.03;99739.53;4101670;28;20708;-51
2022/10/06 05:31:55;;;;;;;1.85;1.30;;;;;;;14.34;95.61;99750.66;4101267;28;20213;-52
2022/10/06 05:33:58;;;;;;;2.58;1.08;;;;;;;14.21;95.43;99750.91;4119448;28;20264;-53
2022/10/06 05:36:05;;;;;;;3.00;0.98;;;;;;;14.28;96.07;99757.13;4101159;28;20298;-53
2022/10/06 05:38:10;;;;;;;3.58;1.13;;;;;;;14.35;96.08;99754.22;4118058;28;20753;-51
2022/10/06 05:40:12;;;;;;;3.53;1.60;;;;;;;14.16;97.03;99764.53;4101026;28;20249;-53
2022/10/06 05:42:14;;;;;;;3.50;1.17;;;;;;;14.06;97.22;99767.09;4101300;28;20301;-53
2022/10/06 05:44:15;;;;;;;2.10;1.20;;;;;;;14.09;97.44;99776.78;4101688;28;20374;-53
2022/10/06 05:46:22;;;;;;;7.47;1.13;;;;;;;14.03;97.57;99775.81;4118355;28;20249;-53
2022/10/06 05:48:24;;;;;;;2.75;1.13;;;;;;;14.07;97.50;99782.53;4118506;28;20610;-52
2022/10/06 05:50:27;;;;;;;7.03;1.50;;;;;;;14.06;97.53;99780.84;4116343;28;20547;-54
2022/10/06 05:52:29;;;;;;;4.13;1.15;;;;;;;14.01;97.80;99789.00;4116154;28;20253;-52
2022/10/06 05:54:31;;;;;;;3.47;1.20;;;;;;;13.96;98.54;99791.63;4117935;28;20249;-50
2022/10/06 05:56:35;;;;;;;4.97;1.90;;;;;;;14.05;98.30;99792.94;4118075;28;20202;-53
2022/10/06 05:58:38;;;;;;;2.67;1.80;;;;;;;13.94;98.54;99782.78;4101474;28;20213;-53
2022/10/06 06:00:40;;;;;;;4.85;1.67;;;;;;;13.91;98.78;99783.25;4103378;28;20206;-55
2022/10/06 06:02:42;;;;;;;3.65;2.08;;;;;;;13.99;98.55;99802.16;4105033;28;20573;-54
2022/10/06 06:04:44;;;;;;;4.60;2.40;;;;;;;13.86;99.06;99791.41;4103542;28;20211;-51
2022/10/06 06:06:47;;;;;;;4.88;1.60;;;;;;;13.94;99.04;99793.78;4119382;28;20737;-50
2022/10/06 06:09:00;;;;;;;5.50;1.63;;;;;;;13.96;99.04;99799.88;4105565;28;20329;-52
2022/10/06 06:11:06;;;;;;;4.28;1.83;;;;;;;13.87;99.21;99804.09;4107392;28;20217;-50
2022/10/06 06:13:09;;;;;;;5.90;2.30;;;;;;;13.96;99.41;99802.63;4105587;28;20294;-53
2022/10/06 06:17:32;;;;;;;5.82;2.05;;;;;;;13.80;99.68;99808.88;4107105;28;20207;-51
2022/10/06 06:19:33;;;;;;;4.47;2.15;;;;;;;13.88;99.64;99822.25;4122705;28;20216;-53
2022/10/06 06:21:35;;;;;;;12.05;2.08;;;;;;;13.83;99.38;99827.63;4118417;28;20252;-52
2022/10/06 06:23:40;;;;;;;12.20;2.42;;;;;;;13.73;99.78;99829.31;4115611;28;20790;-52
2022/10/06 06:25:43;;;;;;;9.80;2.58;;;;;;;13.82;99.84;99827.88;4101512;28;20694;-52
2022/10/06 06:27:44;;;;;;;4.18;1.70;;;;;;;13.83;99.88;99827.63;4105342;28;20617;-52
2022/10/06 06:29:46;;;;;;;4.60;3.05;;;;;;;13.79;99.55;99829.22;4108669;28;20204;-51
2022/10/06 06:31:49;;;;;;;5.28;1.80;;;;;;;13.79;99.75;99823.72;4110071;28;20211;-54
2022/10/06 06:33:53;;;;;;;4.15;1.73;;;;;;;13.91;99.32;99829.22;4120787;28;20333;-51
2022/10/06 06:35:56;;;;;;;4.95;1.88;;;;;;;14.14;98.58;99838.28;4107815;28;20661;-51
2022/10/06 06:37:58;;;;;;;6.40;2.15;;;;;;;14.13;97.51;99842.13;4119638;28;20241;-51
2022/10/06 06:40:00;;;;;;;5.55;2.38;;;;;;;14.16;97.83;99851.81;4124966;28;20210;-51
2022/10/06 06:42:03;;;;;;;5.40;1.80;;;;;;;14.03;97.77;99852.88;4122207;28;20210;-51
2022/10/06 06:44:12;;;;;;;5.03;1.33;;;;;;;14.05;98.06;99867.28;4122336;28;20222;-51
2022/10/06 06:46:16;;;;;;;6.30;2.47;;;;;;;13.99;97.55;99879.22;4120814;28;20194;-52
2022/10/06 06:48:18;;;;;;;4.22;1.40;;;;;;;14.11;97.63;99882.81;4121447;28;20799;-52
2022/10/06 06:50:20;;;;;;;2.47;1.10;;;;;;;14.16;97.76;99887.63;4106978;28;20238;-52
2022/10/06 06:52:22;;;;;;;6.32;1.70;;;;;;;14.12;97.63;99884.50;4123050;28;20614;-53
2022/10/06 06:54:24;;;;;;;6.20;1.67;;;;;;;14.18;97.35;99889.06;4107167;28;20709;-51
2022/10/06 06:56:25;;;;;;;5.78;1.90;;;;;;;14.18;97.14;99894.56;4122230;28;20297;-51
2022/10/06 06:58:27;;;;;;;11.05;1.60;;;;;;;14.10;97.39;99897.66;4124334;28;20270;-51
2022/10/06 07:00:29;;;;;;;2.85;1.45;;;;;;;14.14;96.62;99901.63;4092909;28;20219;-52
2022/10/06 07:02:36;;;;;;;5.47;1.55;;;;;;;14.22;96.50;99900.47;4106740;28;20236;-52
2022/10/06 07:04:38;;;;;;;3.83;1.70;;;;;;;14.20;95.98;99897.09;4118531;28;20696;-52
2022/10/06 07:06:41;;;;;;;7.53;1.55;;;;;;;14.40;95.92;99900.31;4122404;28;20265;-52
2022/10/06 07:08:45;;;;;;;4.13;1.85;;;;;;;14.77;94.86;99910.78;4106024;28;20328;-52
2022/10/06 07:10:47;;;;;;;4.80;1.48;;;;;;;15.22;95.06;99914.50;4121951;28;20249;-52
2022/10/06 07:12:49;;;;;;;5.03;1.20;;;;;;;15.69;92.36;99915.16;4125909;28;20293;-53
2022/10/06 07:26:19;;;;;;;5.20;1.50;;;;;;;17.41;79.61;99921.91;4106978;28;20290;-53
2022/10/06 07:28:21;;;;;;;5.03;1.23;;;;;;;17.72;76.49;99929.44;4104764;28;20238;-52
2022/10/06 07:30:25;;;;;;;11.77;1.40;;;;;;;18.22;77.76;99935.41;4119561;28;20225;-53
2022/10/06 07:32:30;;;;;;;4.38;1.20;;;;;;;18.96;75.12;99939.84;4122639;28;20273;-52
2022/10/06 07:34:32;;;;;;;8.30;1.30;;;;;;;19.27;71.73;99944.47;4120774;28;20225;-52
2022/10/06 07:36:34;;;;;;;9.32;1.65;;;;;;;19.24;70.43;99951.38;4116530;28;20328;-52
2022/10/06 07:38:36;;;;;;;3.85;1.20;;;;;;;19.83;70.59;99944.34;4102560;28;20231;-52
2022/10/06 07:40:38;;;;;;;9.77;1.85;;;;;;;19.00;67.72;99949.31;4117219;28;20218;-52
2022/10/06 07:42:59;;;;;;;8.23;1.77;;;;;;;19.23;68.25;99959.97;4104222;28;20233;-52
2022/10/06 07:47:20;;;;;;;3.80;1.27;;;;;;;19.02;64.04;99955.41;4103154;28;20653;-52
2022/10/06 07:49:22;;;;;;;9.57;1.20;;;;;;;19.40;67.09;99960.63;4104049;28;20207;-52
2022/10/06 07:51:26;;;;;;;7.18;1.42;;;;;;;20.30;65.29;99958.88;4118214;28;20572;-51
2022/10/06 07:53:28;;;;;;;5.32;1.98;;;;;;;19.79;62.57;99961.84;4103909;28;20321;-52
2022/10/06 07:55:30;;;;;;;6.53;1.48;;;;;;;20.43;64.30;99965.81;4121152;28;20296;-51
2022/10/06 07:57:34;;;;;;;13.65;1.75;;;;;;;20.18;63.44;99963.06;4104634;28;20241;-52
2022/10/06 07:59:35;;;;;;;10.75;1.33;;;;;;;21.06;64.14;99965.22;4118837;28;20252;-52
2022/10/06 08:01:38;;;;;;;5.90;1.45;;;;;;;21.51;61.93;99970.63;4104041;28;20611;-52
2022/10/06 08:03:40;;;;;;;4.05;1.52;;;;;;;21.78;60.14;99973.88;4115490;28;20315;-52
2022/10/06 08:05:44;;;;;;;5.38;1.65;;;;;;;21.60;61.20;99966.97;4102351;28;20812;-52
2022/10/06 08:07:46;;;;;;;4.25;1.15;;;;;;;21.73;60.25;99968.31;4103195;28;20234;-52
2022/10/06 08:09:47;;;;;;;13.48;2.83;;;;;;;21.65;60.49;99974.47;4117634;28;20216;-52
2022/10/06 08:11:49;;;;;;;4.70;1.20;;;;;;;20.87;61.69;99978.91;4120480;28;20987;-52
2022/10/06 08:13:51;;;;;;;7.10;1.45;;;;;;;20.50;64.79;99977.53;4102954;28;20713;-52
2022/10/06 08:15:55;;;;;;;7.38;1.48;;;;;;;20.53;65.35;99976.97;4117865;28;20298;-51
2022/10/06 08:18:01;;;;;;;4.88;1.05;;;;;;;19.93;63.90;99982.44;4117922;28;20232;-52
2022/10/06 08:20:13;;;;;;;5.18;1.13;;;;;;;20.43;66.38;99988.06;4103637;28;20214;-52
2022/10/06 08:22:14;;;;;;;3.75;1.23;;;;;;;20.20;65.00;99983.06;4115294;28;20198;-51
2022/10/06 08:24:18;;;;;;;7.05;1.35;;;;;;;19.78;66.10;99990.75;4118577;28;20289;-51
2022/10/06 08:26:21;;;;;;;6.68;1.30;;;;;;;20.04;67.70;99989.72;4122392;28;20287;-52
2022/10/06 08:28:23;;;;;;;5.40;1.92;;;;;;;20.08;66.88;99990.84;4121939;28;20720;-53
2022/10/06 08:30:25;;;;;;;10.77;2.20;;;;;;;19.92;67.30;99991.91;4103916;28;20289;-52
2022/10/06 08:32:27;;;;;;;8.45;1.38;;;;;;;19.75;67.06;99996.84;4119149;28;20241;-52
2022/10/06 08:34:29;;;;;;;4.95;1.50;;;;;;;19.43;67.66;99998.94;4121073;28;22133;-51
2022/10/06 08:36:31;;;;;;;7.18;1.35;;;;;;;19.12;68.69;100008.22;4101853;28;20202;-51
2022/10/06 08:38:37;;;;;;;9.52;1.58;;;;;;;18.58;68.64;100001.19;4121125;28;20206;-51
2022/10/06 08:40:41;;;;;;;5.85;1.33;;;;;;;17.90;70.83;99992.75;4121810;28;20715;-51
2022/10/06 08:42:49;;;;;;;8.57;1.30;;;;;;;17.82;72.45;100001.53;4117284;28;20914;-52
2022/10/06 08:44:57;;;;;;;4.88;1.17;;;;;;;17.78;74.38;100000.41;4117168;28;20229;-51
2022/10/06 08:47:04;;;;;;;4.90;1.10;;;;;;;18.09;74.57;100007.91;4114519;28;20401;-52
2022/10/06 08:49:10;;;;;;;2.83;1.02;;;;;;;18.59;71.89;100008.41;4116446;28;20331;-52
2022/10/06 08:51:48;;;;;;;7.05;1.17;;;;;;;18.15;71.32;100006.88;4100630;28;20825;-50
2022/10/06 08:54:13;;;;;;;4.03;1.27;;;;;;;17.96;71.62;100002.78;4116255;28;20241;-51
2022/10/06 08:56:53;;;;;;;8.40;1.48;;;;;;;19.20;70.89;100018.84;4118374;28;20226;-51
2022/10/06 08:59:03;;;;;;;4.43;1.35;;;;;;;18.73;69.49;100012.38;4079725;28;20257;-50
2022/10/06 09:01:17;;;;;;;6.55;1.10;;;;;;;19.34;70.24;100014.47;4118752;28;20293;-52
2022/10/06 09:03:22;;;;;;;2.50;1.08;;;;;;;20.03;69.75;100013.03;4116692;28;20229;-51
2022/10/06 09:05:27;;;;;;;1.83;0.73;;;;;;;19.35;66.25;100018.91;4117348;28;20206;-50
2022/10/06 09:07:53;;;;;;;6.13;1.25;;;;;;;18.48;68.05;100012.19;4116952;28;20207;-50
2022/10/06 09:10:05;;;;;;;5.38;1.27;;;;;;;19.79;68.59;100015.47;4119260;28;20233;-52
2022/10/06 09:12:55;;;;;;;3.67;1.30;;;;;;;20.51;65.20;100029.28;4118563;28;20269;-51
2022/10/06 09:15:21;;;;;;;2.65;0.80;;;;;;;20.11;62.66;100024.47;4056729;29;20262;-52
2022/10/06 09:17:29;;;;;;;3.35;0.80;;;;;;;21.26;62.60;100037.56;4105345;28;20212;-51
2022/10/06 09:20:07;;;;;;;2.05;0.98;;;;;;;20.68;61.66;100029.81;4120991;28;20202;-52
2022/10/06 09:22:17;;;;;;;5.65;1.38;;;;;;;21.06;62.77;100037.59;4116212;28;20296;-51
2022/10/06 09:24:28;;;;;;;4.10;1.50;;;;;;;20.39;61.50;100037.84;4120175;28;20308;-50
2022/10/06 09:26:31;;;;;;;3.03;1.60;;;;;;;20.47;63.76;100039.28;4102915;28;20217;-51
2022/10/06 09:28:33;;;;;;;4.10;1.10;;;;;;;20.94;62.55;100039.84;4105208;28;20313;-51
2022/10/06 09:30:36;;;;;;;5.97;1.40;;;;;;;21.19;61.62;100039.81;4115844;28;20268;-52
2022/10/06 09:32:40;;;;;;;4.85;1.17;;;;;;;21.69;60.18;100048.03;4103429;28;21243;-51
2022/10/06 09:34:47;;;;;;;5.30;1.40;;;;;;;21.90;55.65;100044.88;4105322;28;20678;-51
2022/10/06 09:36:59;;;;;;;4.18;1.30;;;;;;;22.00;58.17;100044.00;4123193;28;20775;-53
2022/10/06 09:39:04;;;;;;;4.70;1.30;;;;;;;22.37;57.97;100045.16;4107281;28;20214;-51
2022/10/06 09:41:10;;;;;;;6.60;1.20;;;;;;;21.25;56.51;100049.84;4091900;28;20213;-51
2022/10/06 09:43:32;;;;;;;4.65;1.00;;;;;;;21.27;57.74;100053.16;4109179;28;20843;-50
2022/10/06 09:45:35;;;;;;;3.08;1.00;;;;;;;21.57;59.85;100058.66;4089608;28;20771;-50
2022/10/06 09:47:39;;;;;;;2.78;0.93;;;;;;;22.29;57.12;100047.72;4121483;28;20686;-50
2022/10/06 09:49:42;;;;;;;3.10;1.10;;;;;;;22.23;56.34;100057.25;4106726;28;20211;-53
2022/10/06 09:52:17;;;;;;;4.47;1.95;;;;;;;22.55;59.12;100055.66;4106732;28;20210;-52
2022/10/06 09:54:19;;;;;;;5.22;1.23;;;;;;;21.41;55.73;100051.44;4123124;28;20253;-51
2022/10/06 09:56:21;;;;;;;3.72;1.38;;;;;;;21.68;57.97;100051.94;4122438;28;20353;-52
2022/10/06 09:58:31;;;;;;;3.85;1.05;;;;;;;21.88;55.42;100047.13;4122024;28;20198;-52